Time;durP1;ratioP1;P1;durP2;ratioP2;P2;SDS_P1;SDS_P2;PMS_P1;PMS_P2;Temp;Humidity;BMP_temperature;BMP_pressure;BME280_temperature;BME280_humidity;BME280_pressure;Samples;Min_cycle;Max_cycle;Signal;HPM_P1;HPM_P2
2022/12/15 00:39:06;;;;;;;20.92;10.25;;;-3.70;79.60;;;;;;5094081;28;20380;-82
2022/12/15 00:41:32;;;;;;;23.40;10.73;;;-3.70;79.60;;;;;;5092858;28;20024;-82
2022/12/15 00:43:57;;;;;;;24.43;10.83;;;-3.70;79.60;;;;;;5093197;28;20495;-81
2022/12/15 00:50:50;;;;;;;20.83;9.63;;;-3.70;79.70;;;;;;5095098;28;20047;-81
2022/12/15 01:21:58;;;;;;;22.90;9.25;;;-3.80;80.20;;;;;;5092999;28;20093;-82
2022/12/15 01:24:24;;;;;;;22.43;9.50;;;-3.90;80.10;;;;;;5092212;28;20032;-82
2022/12/15 01:26:49;;;;;;;21.40;9.73;;;-3.90;80.20;;;;;;5091939;28;20099;-82
2022/12/15 01:29:15;;;;;;;23.97;10.60;;;-3.90;80.30;;;;;;5092101;28;20098;-82
2022/12/15 01:31:42;;;;;;;20.70;9.13;;;-3.90;80.40;;;;;;5075179;28;20039;-82
2022/12/15 01:34:07;;;;;;;20.93;9.83;;;-3.90;80.50;;;;;;5075322;28;20115;-81
2022/12/15 01:36:33;;;;;;;20.70;10.40;;;-3.90;80.70;;;;;;5091903;28;20365;-82
2022/12/15 01:39:00;;;;;;;19.30;9.33;;;-3.90;80.80;;;;;;5091721;28;20021;-82
2022/12/15 01:41:26;;;;;;;23.53;10.03;;;-3.90;80.80;;;;;;5075107;28;20032;-82
2022/12/15 01:43:51;;;;;;;23.07;10.33;;;-3.90;80.90;;;;;;5075059;28;20696;-82
2022/12/15 01:46:20;;;;;;;22.20;10.23;;;-3.90;81.10;;;;;;5074778;28;20368;-82
2022/12/15 01:48:56;;;;;;;23.33;9.60;;;-3.90;81.20;;;;;;5108601;28;20110;-82
2022/12/15 01:51:41;;;;;;;23.10;10.27;;;-3.90;81.30;;;;;;5091687;28;20830;-80
2022/12/15 01:54:06;;;;;;;20.67;9.20;;;-3.90;81.40;;;;;;5091498;28;20277;-80
2022/12/15 01:56:39;;;;;;;20.37;9.67;;;-3.90;81.40;;;;;;5091405;28;20286;-80
2022/12/15 01:59:10;;;;;;;20.03;9.63;;;-3.90;81.40;;;;;;5091449;28;20058;-80
2022/12/15 02:01:36;;;;;;;23.90;10.97;;;-3.90;81.50;;;;;;5091472;28;20262;-80
2022/12/15 02:04:03;;;;;;;20.43;9.67;;;-3.90;81.50;;;;;;5091558;28;20608;-80
2022/12/15 02:06:28;;;;;;;23.27;9.77;;;-3.90;81.50;;;;;;5092798;28;20379;-80
2022/12/15 02:08:57;;;;;;;19.87;10.07;;;-3.90;81.60;;;;;;5093291;28;20852;-80
2022/12/15 02:11:42;;;;;;;23.73;9.63;;;-3.90;81.70;;;;;;5095144;28;20028;-80
2022/12/15 02:14:10;;;;;;;22.03;9.60;;;-4.00;81.60;;;;;;5096340;28;20277;-80
2022/12/15 02:16:45;;;;;;;25.77;11.70;;;-4.00;81.70;;;;;;5095036;28;20317;-80
2022/12/15 02:19:31;;;;;;;21.23;10.23;;;-4.00;81.70;;;;;;5096315;28;20262;-80
2022/12/15 02:22:38;;;;;;;19.93;9.73;;;-4.00;81.70;;;;;;5096550;28;20277;-80
2022/12/15 02:25:29;;;;;;;20.60;9.10;;;-4.00;81.80;;;;;;5055499;28;20792;-80
2022/12/15 02:28:07;;;;;;;19.80;9.53;;;-4.10;81.80;;;;;;5094853;28;20277;-79
2022/12/15 02:30:35;;;;;;;23.70;11.07;;;-4.00;81.80;;;;;;5095960;28;20273;-79
2022/12/15 02:33:10;;;;;;;24.90;10.67;;;-4.00;81.80;;;;;;5096155;28;20305;-79
2022/12/15 02:36:02;;;;;;;21.70;10.07;;;-4.00;81.90;;;;;;5094549;28;20770;-80
2022/12/15 02:38:34;;;;;;;23.10;9.63;;;-4.00;81.90;;;;;;5094620;28;20319;-81
2022/12/15 02:41:02;;;;;;;19.90;9.63;;;-4.10;81.90;;;;;;5094591;28;20270;-81
2022/12/15 02:43:30;;;;;;;19.83;9.27;;;-4.10;82.00;;;;;;5094620;28;20293;-82
2022/12/15 02:46:46;;;;;;;22.73;9.80;;;-4.10;82.10;;;;;;5094659;28;20360;-82
2022/12/15 02:49:29;;;;;;;19.67;9.03;;;-4.10;82.10;;;;;;5056788;28;20271;-82
2022/12/15 02:52:24;;;;;;;19.33;9.27;;;-4.10;82.30;;;;;;5095931;28;20278;-82
2022/12/15 02:55:02;;;;;;;19.65;9.88;;;-4.10;82.30;;;;;;5094328;28;20278;-82
2022/12/15 02:57:56;;;;;;;20.50;8.80;;;-4.10;82.30;;;;;;5094578;28;20016;-82
2022/12/15 03:00:22;;;;;;;;;;;-4.10;82.30;;;;;;5096043;28;20357;-81
2022/12/15 03:02:51;;;;;;;18.00;8.23;;;-4.00;82.40;;;;;;5094168;28;20382;-80
2022/12/15 03:05:18;;;;;;;17.73;8.47;;;-4.10;82.90;;;;;;5094043;28;20031;-79
2022/12/15 03:07:44;;;;;;;17.93;8.93;;;-4.10;82.20;;;;;;5093942;28;20270;-79
2022/12/15 03:10:12;;;;;;;22.43;9.63;;;-4.20;82.30;;;;;;5077228;28;20316;-79
2022/12/15 03:12:38;;;;;;;19.07;8.60;;;-4.20;82.30;;;;;;5095159;28;20099;-79
2022/12/15 03:15:05;;;;;;;21.43;9.43;;;-4.20;82.40;;;;;;5094217;28;20721;-79
2022/12/15 03:17:31;;;;;;;22.10;10.10;;;-4.20;82.50;;;;;;5095095;28;20060;-79
2022/12/15 03:19:56;;;;;;;21.87;9.20;;;-4.20;82.50;;;;;;5076631;28;20278;-79
2022/12/15 03:22:22;;;;;;;19.43;8.97;;;-4.20;82.60;;;;;;5094108;28;20526;-80
2022/12/15 03:24:48;;;;;;;22.37;9.23;;;-4.20;82.60;;;;;;5093871;28;20032;-80
2022/12/15 03:27:13;;;;;;;20.87;9.63;;;-4.20;82.70;;;;;;5093892;28;20051;-79
2022/12/15 03:29:39;;;;;;;19.33;9.43;;;-4.20;82.80;;;;;;5095140;28;20032;-80
2022/12/15 03:32:05;;;;;;;24.77;9.33;;;-4.20;82.80;;;;;;5077253;28;20039;-81
2022/12/15 03:34:31;;;;;;;20.10;9.70;;;-4.20;82.80;;;;;;5076900;28;20032;-81
2022/12/15 03:36:56;;;;;;;21.17;9.33;;;-4.20;82.90;;;;;;5076828;28;20282;-81
2022/12/15 03:39:25;;;;;;;19.07;8.97;;;-4.30;82.90;;;;;;5094049;28;20028;-81
2022/12/15 03:41:51;;;;;;;23.10;9.77;;;-4.30;82.90;;;;;;5077363;28;20035;-81
2022/12/15 03:44:16;;;;;;;21.50;9.40;;;-4.30;83.00;;;;;;5094736;28;20270;-81
2022/12/15 03:46:42;;;;;;;21.80;9.73;;;-4.30;83.00;;;;;;5076978;28;20058;-82
2022/12/15 03:49:08;;;;;;;20.17;10.03;;;-4.30;83.00;;;;;;5094144;28;20502;-81
2022/12/15 03:51:33;;;;;;;21.23;9.80;;;-4.30;83.10;;;;;;5076854;28;20392;-81
2022/12/15 03:53:59;;;;;;;20.83;9.50;;;-4.30;83.00;;;;;;5093574;28;20099;-82
2022/12/15 03:56:25;;;;;;;22.03;9.47;;;-4.30;83.00;;;;;;5076575;28;20060;-81
2022/12/15 03:58:50;;;;;;;19.10;8.77;;;-4.30;83.00;;;;;;5093551;28;20044;-82
2022/12/15 04:01:27;;;;;;;20.23;9.20;;;-4.30;83.10;;;;;;5076700;28;20024;-81
2022/12/15 04:03:53;;;;;;;21.17;9.23;;;-4.30;83.20;;;;;;5095069;28;20020;-82
2022/12/15 04:06:19;;;;;;;23.43;9.47;;;-4.30;83.20;;;;;;5097418;28;20331;-82
2022/12/15 04:08:45;;;;;;;19.50;8.73;;;-4.30;83.20;;;;;;5096206;28;20788;-82
2022/12/15 04:11:10;;;;;;;21.97;9.47;;;-4.40;83.20;;;;;;5096776;28;20028;-82
2022/12/15 04:13:36;;;;;;;20.80;9.20;;;-4.40;83.30;;;;;;5079194;28;20024;-82
2022/12/15 04:16:02;;;;;;;23.53;9.57;;;-4.30;83.40;;;;;;5079191;28;20028;-82
2022/12/15 04:18:28;;;;;;;19.87;9.47;;;-4.40;83.40;;;;;;5078793;28;20024;-82
2022/12/15 04:20:55;;;;;;;22.70;9.60;;;-4.40;83.50;;;;;;5078374;28;20300;-82
2022/12/15 04:23:21;;;;;;;23.60;10.23;;;-4.30;83.70;;;;;;5078849;28;20282;-82
2022/12/15 05:32:04;;;;;;;16.13;7.90;;;-4.40;83.60;;;;;;5093457;28;20089;-81
2022/12/15 05:34:31;;;;;;;17.80;7.60;;;-4.40;83.70;;;;;;5075051;28;20368;-81
2022/12/15 05:36:58;;;;;;;22.50;9.20;;;-4.40;83.80;;;;;;5067349;28;20369;-82
2022/12/15 05:39:25;;;;;;;22.17;9.70;;;-4.40;83.80;;;;;;5089486;28;20303;-82
2022/12/15 05:41:52;;;;;;;17.67;8.67;;;-4.40;83.90;;;;;;5087183;28;20417;-80
2022/12/15 05:44:18;;;;;;;20.47;10.07;;;-4.40;84.10;;;;;;5088042;28;20262;-80
2022/12/15 05:46:44;;;;;;;25.03;9.53;;;-4.40;84.20;;;;;;5094083;28;20778;-82
2022/12/15 05:49:16;;;;;;;18.03;8.13;;;-4.40;84.30;;;;;;5080392;28;20302;-81
2022/12/15 05:51:43;;;;;;;19.57;9.20;;;-4.40;84.40;;;;;;5074665;28;20289;-82
2022/12/15 05:54:12;;;;;;;22.03;10.07;;;-4.40;84.40;;;;;;5083243;28;20762;-80
2022/12/15 05:56:37;;;;;;;20.87;9.53;;;-4.40;84.40;;;;;;5094005;28;20282;-80
2022/12/15 05:59:04;;;;;;;20.03;8.90;;;-4.40;84.50;;;;;;5066996;28;20302;-80
2022/12/15 06:01:34;;;;;;;21.87;9.33;;;-4.40;84.50;;;;;;5089956;28;20107;-80
2022/12/15 06:04:00;;;;;;;19.03;9.33;;;-4.40;84.50;;;;;;5093719;28;20351;-80
2022/12/15 06:06:28;;;;;;;26.27;10.50;;;-4.40;84.60;;;;;;5095060;28;20305;-80
2022/12/15 06:08:54;;;;;;;21.23;9.07;;;-4.40;84.60;;;;;;5077493;28;20294;-82
2022/12/15 06:11:21;;;;;;;22.60;9.30;;;-4.40;84.60;;;;;;5095698;28;20312;-80
2022/12/15 06:13:47;;;;;;;19.40;8.80;;;-4.40;84.60;;;;;;5094626;28;20028;-80
2022/12/15 06:16:18;;;;;;;23.13;9.67;;;-4.40;84.60;;;;;;5078148;28;20287;-82
2022/12/15 06:18:49;;;;;;;22.50;8.57;;;-4.40;84.60;;;;;;5095287;28;20277;-82
2022/12/15 06:21:20;;;;;;;19.83;8.67;;;-4.40;84.60;;;;;;5094117;28;20672;-81
2022/12/15 06:23:46;;;;;;;19.17;8.60;;;-4.40;84.60;;;;;;5093802;28;20312;-81
2022/12/15 06:26:19;;;;;;;16.87;8.77;;;-4.40;84.60;;;;;;5094362;28;20769;-81
2022/12/15 06:28:45;;;;;;;18.73;9.70;;;-4.40;84.60;;;;;;5092300;28;20633;-81
2022/12/15 06:31:12;;;;;;;20.93;8.83;;;-4.40;84.70;;;;;;5094710;28;20270;-81
2022/12/15 06:33:38;;;;;;;26.57;10.43;;;-4.40;84.80;;;;;;5075734;28;20297;-80
2022/12/15 06:36:09;;;;;;;21.63;9.70;;;-4.40;84.80;;;;;;5111312;28;20630;-82
2022/12/15 06:38:35;;;;;;;23.13;11.33;;;-4.40;84.70;;;;;;5093022;28;20334;-80
2022/12/15 06:41:03;;;;;;;23.27;10.23;;;-4.40;84.70;;;;;;5094415;28;20274;-79
2022/12/15 06:43:29;;;;;;;19.50;9.87;;;-4.50;84.70;;;;;;5094035;28;20270;-81
2022/12/15 06:45:55;;;;;;;20.73;10.27;;;-4.40;84.70;;;;;;5078019;28;20271;-81
2022/12/15 06:48:23;;;;;;;21.80;9.57;;;-4.40;84.70;;;;;;5073758;28;20286;-81
2022/12/15 06:50:49;;;;;;;20.53;9.70;;;-4.50;84.70;;;;;;5076860;28;20032;-81
2022/12/15 06:53:16;;;;;;;21.43;10.27;;;-4.50;84.70;;;;;;5086723;28;20349;-80
2022/12/15 06:55:43;;;;;;;22.30;10.17;;;-4.50;84.70;;;;;;5072232;28;20762;-81
2022/12/15 06:58:11;;;;;;;21.40;10.43;;;-4.40;84.80;;;;;;5072749;28;20374;-80
2022/12/15 07:00:37;;;;;;;21.33;9.90;;;-4.50;85.00;;;;;;5074422;28;20277;-81
2022/12/15 07:03:06;;;;;;;21.60;9.43;;;-4.50;85.10;;;;;;5071743;28;20279;-80
2022/12/15 07:05:32;;;;;;;20.17;9.70;;;-4.50;85.00;;;;;;5073604;28;20318;-81
2022/12/15 07:07:58;;;;;;;20.33;10.03;;;-4.50;85.00;;;;;;5074196;28;20271;-81
2022/12/15 07:10:27;;;;;;;18.43;9.10;;;-4.50;85.10;;;;;;5074631;28;20029;-80
2022/12/15 07:12:55;;;;;;;18.17;9.20;;;-4.50;85.10;;;;;;5094506;28;20281;-83
2022/12/15 07:15:21;;;;;;;21.63;10.33;;;-4.50;85.20;;;;;;5094364;28;20266;-82
2022/12/15 07:17:46;;;;;;;23.97;10.17;;;-4.60;85.30;;;;;;5095725;28;20293;-83
2022/12/15 07:20:12;;;;;;;26.10;10.73;;;-4.60;85.30;;;;;;5078757;28;20028;-83
2022/12/15 07:22:38;;;;;;;23.13;10.77;;;-4.60;85.30;;;;;;5076152;28;20025;-81
2022/12/15 07:25:04;;;;;;;23.63;10.30;;;-4.70;85.40;;;;;;5077559;28;20024;-82
2022/12/15 07:27:30;;;;;;;27.30;12.47;;;-4.60;85.50;;;;;;5077482;28;20493;-81
2022/12/15 07:29:55;;;;;;;24.13;10.67;;;-4.60;85.60;;;;;;5077393;28;20305;-82
2022/12/15 07:32:21;;;;;;;26.63;11.77;;;-4.60;85.70;;;;;;5094048;28;20024;-82
2022/12/15 07:34:47;;;;;;;23.00;11.37;;;-4.60;85.70;;;;;;5095219;28;20392;-82
2022/12/15 07:37:13;;;;;;;24.90;12.07;;;-4.60;85.80;;;;;;5093799;28;20024;-81
2022/12/15 07:39:38;;;;;;;25.83;11.70;;;-4.60;85.90;;;;;;5093731;28;20020;-81
2022/12/15 07:42:04;;;;;;;24.47;10.93;;;-4.60;85.90;;;;;;5093757;28;20024;-82
2022/12/15 07:44:30;;;;;;;27.47;12.10;;;-4.60;86.00;;;;;;5076666;28;20476;-81
2022/12/15 07:46:56;;;;;;;22.33;10.67;;;-4.60;86.10;;;;;;5093304;28;20361;-82
2022/12/15 07:49:22;;;;;;;27.00;11.17;;;-4.60;86.20;;;;;;5093214;28;20280;-81
2022/12/15 07:51:48;;;;;;;26.67;11.87;;;-4.60;86.20;;;;;;5093198;28;20016;-81
2022/12/15 07:54:14;;;;;;;25.70;11.90;;;-4.50;86.50;;;;;;5093577;28;20422;-81
2022/12/15 07:56:40;;;;;;;29.67;12.07;;;-4.50;86.50;;;;;;5093437;28;20490;-81
2022/12/15 07:59:07;;;;;;;29.73;11.53;;;-4.50;86.50;;;;;;5093060;28;20365;-82
2022/12/15 08:01:34;;;;;;;25.40;11.50;;;-4.50;86.50;;;;;;5094615;28;20020;-82
2022/12/15 08:04:00;;;;;;;24.20;12.37;;;-4.50;86.50;;;;;;5094732;28;20273;-81
2022/12/15 08:06:26;;;;;;;26.07;11.07;;;-4.40;86.60;;;;;;5092971;28;20278;-81
2022/12/15 08:08:52;;;;;;;24.83;12.60;;;-4.40;86.70;;;;;;5093174;28;20281;-81
2022/12/15 08:11:19;;;;;;;28.23;12.00;;;-4.40;86.70;;;;;;5076281;28;20458;-81
2022/12/15 08:13:45;;;;;;;24.33;11.77;;;-4.40;86.80;;;;;;5092973;28;20361;-81
2022/12/15 08:16:11;;;;;;;25.03;11.63;;;-4.40;86.90;;;;;;5076030;28;20286;-82
2022/12/15 08:18:38;;;;;;;26.57;11.87;;;-4.40;86.90;;;;;;5076070;28;20438;-82
2022/12/15 08:21:09;;;;;;;22.37;11.43;;;-4.20;87.10;;;;;;5076189;28;20020;-81
2022/12/15 08:23:35;;;;;;;25.93;11.77;;;-4.30;87.10;;;;;;5092852;28;20366;-82
2022/12/15 08:26:10;;;;;;;25.10;11.90;;;-4.30;87.10;;;;;;5092871;28;20274;-81
2022/12/15 08:28:37;;;;;;;27.30;12.10;;;-4.20;87.20;;;;;;5092760;28;20308;-81
2022/12/15 08:31:15;;;;;;;28.27;13.00;;;-4.20;87.30;;;;;;5092420;28;20360;-81
2022/12/15 08:33:41;;;;;;;26.33;12.70;;;-4.20;87.30;;;;;;5092680;28;20789;-82
2022/12/15 08:36:09;;;;;;;29.90;12.93;;;-4.10;87.50;;;;;;5093761;28;20692;-81
2022/12/15 08:38:37;;;;;;;28.53;13.27;;;-4.10;87.60;;;;;;5092483;28;20728;-81
2022/12/15 08:41:18;;;;;;;26.30;12.70;;;-4.10;87.70;;;;;;5092642;28;20777;-81
2022/12/15 08:43:46;;;;;;;28.67;13.93;;;-4.00;87.80;;;;;;5092683;28;20270;-82
2022/12/15 08:46:11;;;;;;;30.17;14.03;;;-3.90;87.90;;;;;;5075626;28;20279;-81
2022/12/15 08:48:37;;;;;;;31.90;14.67;;;-3.90;87.90;;;;;;5075848;28;20748;-82
2022/12/15 08:51:03;;;;;;;27.90;13.83;;;-3.80;88.10;;;;;;5075464;28;20388;-82
2022/12/15 08:53:29;;;;;;;29.67;14.27;;;-3.80;88.00;;;;;;5093625;28;20511;-82
2022/12/15 08:55:54;;;;;;;34.90;14.33;;;-3.70;88.20;;;;;;5075929;28;20294;-81
2022/12/15 08:58:20;;;;;;;31.13;14.43;;;-3.60;88.80;;;;;;5092315;28;20028;-81
2022/12/15 09:00:46;;;;;;;33.17;15.27;;;-3.60;88.20;;;;;;5092267;28;20051;-82
2022/12/15 09:03:12;;;;;;;36.20;15.50;;;-3.50;88.30;;;;;;5075413;28;20282;-82
2022/12/15 09:05:38;;;;;;;29.77;14.20;;;-3.50;88.20;;;;;;5092298;28;20376;-82
2022/12/15 09:08:04;;;;;;;29.60;14.00;;;-3.40;88.30;;;;;;5074998;28;20016;-81
2022/12/15 09:10:33;;;;;;;30.43;15.57;;;-3.40;88.40;;;;;;5075600;28;20020;-81
2022/12/15 09:13:00;;;;;;;31.37;13.90;;;-3.30;88.50;;;;;;5092248;28;20310;-81
2022/12/15 09:15:25;;;;;;;27.57;14.37;;;-3.30;88.50;;;;;;5091772;28;20304;-81
2022/12/15 09:17:51;;;;;;;33.90;16.53;;;-3.20;88.60;;;;;;5092175;28;20856;-81
2022/12/15 09:20:17;;;;;;;35.93;16.67;;;-3.10;88.70;;;;;;5096094;28;20049;-81
2022/12/15 09:22:42;;;;;;;31.53;16.73;;;-3.00;89.00;;;;;;5079315;28;20484;-83
2022/12/15 09:25:08;;;;;;;30.33;16.30;;;-2.90;89.10;;;;;;5079164;28;20594;-81
2022/12/15 09:27:34;;;;;;;32.93;16.50;;;-2.70;89.30;;;;;;5096075;28;20124;-81
2022/12/15 09:30:03;;;;;;;31.63;15.87;;;-2.50;89.20;;;;;;5079255;28;20030;-81
2022/12/15 09:32:28;;;;;;;32.00;17.90;;;-2.10;89.50;;;;;;5079010;28;20277;-81
2022/12/15 09:34:54;;;;;;;32.43;16.07;;;-1.70;90.00;;;;;;5095700;28;20278;-81
2022/12/15 09:37:20;;;;;;;33.60;15.57;;;-1.40;90.10;;;;;;5095678;28;20032;-81
2022/12/15 09:39:45;;;;;;;27.73;14.77;;;-1.00;90.50;;;;;;5095699;28;20031;-81
2022/12/15 09:42:24;;;;;;;26.30;13.27;;;-0.50;91.10;;;;;;5078765;28;20436;-81
2022/12/15 09:45:15;;;;;;;28.17;14.57;;;0.00;91.50;;;;;;5095753;28;20024;-81
2022/12/15 09:47:54;;;;;;;27.43;14.43;;;0.70;92.10;;;;;;5095031;28;20060;-81
2022/12/15 09:50:27;;;;;;;21.30;13.07;;;1.50;92.60;;;;;;5095662;28;20024;-82
2022/12/15 09:52:57;;;;;;;28.27;15.43;;;2.00;92.90;;;;;;5096920;28;20411;-82
2022/12/15 09:55:25;;;;;;;25.70;14.90;;;2.50;93.10;;;;;;5095532;28;20028;-81
2022/12/15 09:57:55;;;;;;;24.87;14.60;;;2.90;92.90;;;;;;5095371;28;20027;-82
2022/12/15 10:00:31;;;;;;;26.57;16.57;;;3.40;93.10;;;;;;5095215;28;20115;-82
2022/12/15 10:03:06;;;;;;;22.70;15.10;;;3.90;92.90;;;;;;5095355;28;20384;-82
2022/12/15 10:05:56;;;;;;;22.50;14.90;;;4.50;92.50;;;;;;5096531;28;20024;-82
2022/12/15 10:08:27;;;;;;;26.20;16.03;;;5.00;92.30;;;;;;5096463;28;20103;-81
2022/12/15 10:11:12;;;;;;;22.10;14.13;;;5.50;91.40;;;;;;5095141;28;20028;-81
2022/12/15 10:13:54;;;;;;;22.90;14.57;;;5.70;90.30;;;;;;5095104;28;20050;-82
2022/12/15 10:16:31;;;;;;;21.88;14.48;;;6.10;90.00;;;;;;5096318;28;20032;-82
2022/12/15 10:19:24;;;;;;;20.58;13.85;;;6.40;88.90;;;;;;5095223;28;20020;-81
2022/12/15 10:21:50;;;;;;;22.95;15.38;;;6.60;86.30;;;;;;5094914;28;20024;-81
2022/12/15 10:24:21;;;;;;;24.13;14.30;;;6.70;85.60;;;;;;5078187;28;20380;-81
2022/12/15 10:27:12;;;;;;;25.52;16.30;;;6.90;84.30;;;;;;5096270;28;20034;-80
2022/12/15 10:30:00;;;;;;;26.13;15.98;;;7.00;82.60;;;;;;5095905;28;20025;-81
2022/12/15 10:32:49;;;;;;;26.13;15.90;;;7.10;80.70;;;;;;5095993;28;20383;-81
2022/12/15 10:35:26;;;;;;;26.00;16.75;;;7.10;78.80;;;;;;5095849;28;20411;-81
2022/12/15 10:37:56;;;;;;;26.13;17.73;;;6.90;75.70;;;;;;5095933;28;20402;-81
2022/12/15 10:40:45;;;;;;;27.60;17.87;;;6.70;73.80;;;;;;5094721;28;20480;-81
2022/12/15 10:43:29;;;;;;;26.73;17.00;;;6.60;73.50;;;;;;5094822;28;20020;-81
2022/12/15 10:46:25;;;;;;;25.80;16.93;;;6.60;72.80;;;;;;5094666;28;20028;-80
2022/12/15 10:48:55;;;;;;;27.50;17.23;;;6.50;71.20;;;;;;5096028;28;20031;-81
2022/12/15 10:51:24;;;;;;;29.43;18.67;;;6.50;71.80;;;;;;5095879;28;20543;-81
2022/12/15 10:54:14;;;;;;;24.00;16.30;;;6.80;72.20;;;;;;5096022;28;20024;-81
2022/12/15 10:56:56;;;;;;;25.57;15.70;;;7.30;73.00;;;;;;5094421;28;20454;-81
2022/12/15 10:59:23;;;;;;;26.80;16.50;;;7.70;72.50;;;;;;5094129;28;20040;-81
2022/12/15 11:01:50;;;;;;;24.92;16.40;;;7.90;72.10;;;;;;5095420;28;20032;-80
2022/12/15 11:04:32;;;;;;;24.60;16.27;;;8.00;71.90;;;;;;5094239;28;20033;-81
2022/12/15 11:07:02;;;;;;;25.15;14.98;;;8.20;71.20;;;;;;5078239;28;20111;-81
2022/12/15 11:09:35;;;;;;;25.38;15.52;;;8.30;70.90;;;;;;5094055;28;20020;-80
2022/12/15 11:14:49;;;;;;;27.77;16.80;;;8.50;67.80;;;;;;5095410;28;20101;-81
2022/12/15 11:17:57;;;;;;;27.38;16.92;;;8.50;67.40;;;;;;5093740;28;20150;-82
2022/12/15 11:20:37;;;;;;;24.08;16.52;;;8.40;66.80;;;;;;5094910;28;20137;-82
2022/12/15 11:23:25;;;;;;;24.38;16.58;;;8.30;66.30;;;;;;5095057;28;20031;-81
2022/12/15 11:25:57;;;;;;;23.93;15.63;;;8.40;65.70;;;;;;5094945;28;20024;-81
2022/12/15 11:28:47;;;;;;;22.60;15.67;;;8.50;66.40;;;;;;5093556;28;20048;-81
2022/12/15 11:31:33;;;;;;;28.90;17.47;;;8.50;65.10;;;;;;5093461;28;20028;-81
2022/12/15 11:33:59;;;;;;;23.30;15.90;;;8.50;63.90;;;;;;5093871;28;20024;-82
2022/12/15 11:36:49;;;;;;;28.37;17.87;;;8.40;64.20;;;;;;5093516;28;20088;-81
2022/12/15 11:39:24;;;;;;;25.93;16.63;;;8.30;63.80;;;;;;5094875;28;20069;-82
2022/12/15 11:41:56;;;;;;;29.70;19.70;;;8.20;63.40;;;;;;5092939;28;20021;-81
2022/12/15 11:44:49;;;;;;;27.77;18.27;;;8.10;62.80;;;;;;5094700;28;20020;-81
2022/12/15 11:47:28;;;;;;;29.27;18.30;;;8.10;63.20;;;;;;5093419;28;20039;-82
2022/12/15 11:50:06;;;;;;;26.27;16.47;;;8.20;63.30;;;;;;5094541;28;20357;-81
2022/12/15 11:52:53;;;;;;;24.23;16.30;;;8.40;63.40;;;;;;5093415;28;20024;-81
2022/12/15 11:55:25;;;;;;;22.57;15.70;;;8.80;63.50;;;;;;5094406;28;20111;-81
2022/12/15 11:58:12;;;;;;;24.65;15.63;;;9.20;63.80;;;;;;5094200;28;20028;-82
2022/12/15 12:00:54;;;;;;;21.38;15.15;;;9.50;63.90;;;;;;5092892;28;20537;-82
2022/12/15 12:03:26;;;;;;;24.92;16.30;;;9.70;63.90;;;;;;5094331;28;20155;-82
2022/12/15 12:06:18;;;;;;;22.42;14.60;;;10.10;64.10;;;;;;5094243;28;20540;-82
2022/12/15 12:08:44;;;;;;;22.60;14.25;;;10.40;63.50;;;;;;5094350;28;20027;-82
2022/12/15 12:11:20;;;;;;;21.17;13.90;;;10.80;63.80;;;;;;5094182;28;20024;-82
2022/12/15 12:14:23;;;;;;;22.75;15.07;;;11.30;62.70;;;;;;5092894;28;20020;-82
2022/12/15 12:17:02;;;;;;;24.75;15.27;;;11.80;61.30;;;;;;5094139;28;20043;-82
2022/12/15 12:19:38;;;;;;;21.52;14.93;;;12.20;60.10;;;;;;5094011;28;20412;-82
2022/12/15 12:22:23;;;;;;;21.63;14.75;;;12.20;59.60;;;;;;5094282;28;20134;-82
2022/12/15 12:25:13;;;;;;;23.77;17.63;;;12.00;58.00;;;;;;5092671;28;20081;-82
2022/12/15 12:28:12;;;;;;;23.25;17.05;;;11.80;56.40;;;;;;5094194;28;20020;-82
2022/12/15 12:30:44;;;;;;;28.42;16.50;;;11.40;55.30;;;;;;5093795;28;20028;-82
2022/12/15 12:33:39;;;;;;;27.27;17.05;;;10.80;55.30;;;;;;5092425;28;20117;-80
2022/12/15 12:36:10;;;;;;;24.08;17.92;;;10.30;55.90;;;;;;5092667;28;20031;-82
2022/12/15 12:38:44;;;;;;;24.00;16.08;;;10.30;57.30;;;;;;5092416;28;20035;-82
2022/12/15 12:41:28;;;;;;;22.60;16.40;;;10.70;57.50;;;;;;5092508;28;20031;-82
2022/12/15 12:43:57;;;;;;;23.05;16.63;;;11.20;57.70;;;;;;5092423;28;20036;-82
2022/12/15 12:47:24;;;;;;;24.65;16.10;;;11.60;57.40;;;;;;5092396;28;20383;-82
2022/12/15 12:49:56;;;;;;;26.30;17.10;;;12.00;56.60;;;;;;5068158;28;20493;-82
2022/12/15 12:52:35;;;;;;;23.63;16.63;;;12.00;55.00;;;;;;5054084;28;20033;-82
2022/12/15 12:55:20;;;;;;;26.92;18.00;;;11.80;54.40;;;;;;5087935;28;20400;-82
2022/12/15 12:57:46;;;;;;;;;;;11.50;54.20;;;;;;5093876;28;20397;-81
2022/12/15 13:00:25;;;;;;;28.30;19.20;;;10.90;53.40;;;;;;5092109;28;20033;-82
2022/12/15 13:02:51;;;;;;;26.58;17.60;;;10.80;55.00;;;;;;5093385;28;20024;-82
2022/12/15 13:05:25;;;;;;;25.73;17.10;;;11.00;56.20;;;;;;5093406;28;20372;-82
2022/12/15 13:07:53;;;;;;;26.20;16.85;;;11.50;56.30;;;;;;5092162;28;20031;-82
2022/12/15 13:10:21;;;;;;;26.42;17.30;;;11.70;55.70;;;;;;5092060;28;20043;-82
2022/12/15 13:12:57;;;;;;;29.00;17.65;;;11.60;54.80;;;;;;5092106;28;20043;-82
2022/12/15 13:15:26;;;;;;;26.50;18.50;;;11.50;54.70;;;;;;5092076;28;20032;-81
2022/12/15 13:18:05;;;;;;;28.23;18.63;;;11.30;54.40;;;;;;5091596;28;20036;-82
2022/12/15 13:20:34;;;;;;;31.45;18.80;;;11.00;54.10;;;;;;5091971;28;20430;-82
2022/12/15 13:23:18;;;;;;;28.10;17.93;;;10.60;54.30;;;;;;5091909;28;20036;-82
2022/12/15 13:25:59;;;;;;;31.33;18.23;;;10.20;55.10;;;;;;5092009;28;20115;-81
2022/12/15 13:28:34;;;;;;;29.90;19.70;;;10.00;55.40;;;;;;5091916;28;20051;-82
2022/12/15 13:31:18;;;;;;;29.37;19.03;;;9.60;55.20;;;;;;5093229;28;20024;-79
2022/12/15 13:33:56;;;;;;;28.23;20.73;;;9.10;55.90;;;;;;5091725;28;20119;-80
2022/12/15 13:36:36;;;;;;;28.57;19.87;;;8.80;56.30;;;;;;5092956;28;20017;-79
2022/12/15 13:39:11;;;;;;;31.90;18.80;;;8.40;56.50;;;;;;5093494;28;20480;-79
2022/12/15 13:41:40;;;;;;;26.47;17.67;;;8.20;57.80;;;;;;5092777;28;20024;-80
2022/12/15 13:44:46;;;;;;;30.63;19.17;;;8.30;57.90;;;;;;5075818;28;20028;-80
2022/12/15 13:47:14;;;;;;;28.83;19.07;;;8.30;57.70;;;;;;5089834;28;20070;-79
2022/12/15 13:49:46;;;;;;;34.10;20.37;;;8.00;57.80;;;;;;5092847;28;20502;-79
2022/12/15 13:52:27;;;;;;;29.20;19.70;;;8.00;58.20;;;;;;5093000;28;20089;-81
2022/12/15 13:55:02;;;;;;;30.80;20.57;;;7.70;58.40;;;;;;5090082;28;20443;-81
2022/12/15 13:58:04;;;;;;;30.93;20.37;;;7.50;58.80;;;;;;5090729;28;20024;-81
2022/12/15 14:00:31;;;;;;;28.53;18.57;;;7.30;59.70;;;;;;5047806;28;20390;-80
2022/12/15 14:03:05;;;;;;;28.03;17.97;;;7.50;60.30;;;;;;5051526;28;20443;-80
2022/12/15 14:05:31;;;;;;;29.50;20.35;;;7.70;60.00;;;;;;5054184;28;20021;-81
2022/12/15 14:08:02;;;;;;;30.83;20.47;;;7.80;60.00;;;;;;5054827;28;20389;-80
2022/12/15 14:11:03;;;;;;;30.83;20.47;;;7.70;60.10;;;;;;5054361;28;20115;-80
2022/12/15 14:13:33;;;;;;;36.30;21.70;;;7.60;60.00;;;;;;5045643;28;20033;-79
2022/12/15 14:16:06;;;;;;;32.83;20.83;;;7.40;60.00;;;;;;5054288;28;20487;-80
2022/12/15 14:18:34;;;;;;;28.67;18.47;;;7.20;60.10;;;;;;5066364;28;20017;-80
2022/12/15 14:21:04;;;;;;;35.17;20.70;;;7.00;60.30;;;;;;5058205;28;20057;-79
2022/12/15 14:23:40;;;;;;;32.60;19.60;;;6.70;60.40;;;;;;5064568;28;20052;-80
2022/12/15 14:26:10;;;;;;;29.50;19.13;;;6.70;60.90;;;;;;5055423;28;20025;-80
2022/12/15 14:28:37;;;;;;;32.37;19.13;;;6.40;61.30;;;;;;5062509;28;20039;-80
2022/12/15 14:31:15;;;;;;;31.20;20.20;;;6.30;61.60;;;;;;5043299;28;20028;-80
2022/12/15 14:33:43;;;;;;;36.40;21.90;;;6.20;62.00;;;;;;5054483;28;20447;-80
2022/12/15 14:36:11;;;;;;;34.03;19.50;;;6.00;62.60;;;;;;5037543;28;20099;-80
2022/12/15 14:38:42;;;;;;;33.80;20.43;;;5.80;62.30;;;;;;5054380;28;20017;-80
2022/12/15 14:41:21;;;;;;;33.47;20.03;;;5.70;62.70;;;;;;5054410;28;20088;-80
2022/12/15 14:43:48;;;;;;;31.23;18.93;;;5.50;62.70;;;;;;5054192;28;20536;-79
2022/12/15 14:46:28;;;;;;;33.73;19.07;;;5.30;63.00;;;;;;5055535;28;20032;-79
2022/12/15 14:48:57;;;;;;;31.73;19.43;;;5.10;63.20;;;;;;5054082;28;20017;-79
2022/12/15 14:51:25;;;;;;;33.27;19.37;;;5.10;63.60;;;;;;5053902;28;20546;-80
2022/12/15 14:53:52;;;;;;;31.00;19.60;;;5.00;63.80;;;;;;5053723;28;20111;-79
2022/12/15 14:56:23;;;;;;;33.30;21.13;;;4.90;64.30;;;;;;5054206;28;20037;-79
2022/12/15 14:58:59;;;;;;;29.00;18.67;;;4.70;64.70;;;;;;5055303;28;20017;-79
2022/12/15 15:01:32;;;;;;;34.80;19.73;;;4.70;65.10;;;;;;5079706;28;20039;-79
2022/12/15 15:04:01;;;;;;;32.13;19.03;;;4.50;65.30;;;;;;5094355;28;20016;-79
2022/12/15 15:06:34;;;;;;;34.47;21.33;;;4.50;66.20;;;;;;5094111;28;20020;-79
2022/12/15 15:09:19;;;;;;;33.90;20.67;;;4.40;66.10;;;;;;5095753;28;20074;-79
2022/12/15 15:11:48;;;;;;;33.87;19.83;;;4.30;65.80;;;;;;5095424;28;20499;-79
2022/12/15 15:14:22;;;;;;;33.47;20.50;;;4.10;65.80;;;;;;5094058;28;20111;-79
2022/12/15 15:17:08;;;;;;;34.63;19.95;;;4.00;66.20;;;;;;5092805;28;20055;-79
2022/12/15 15:19:36;;;;;;;31.20;19.83;;;3.90;66.40;;;;;;5094773;28;20048;-79